sensor_id;sensor_type;location;lat;lon;timestamp;pressure;altitude;pressure_sealevel;temperature;humidity
50484;BME280;36409;52.168;20.878;2023-04-24T00:02:00;99634.77;;;9.75;50.51
50484;BME280;36409;52.168;20.878;2023-04-24T00:04:34;99634.85;;;9.72;50.62
50484;BME280;36409;52.168;20.878;2023-04-24T00:07:07;99635.75;;;9.69;51.06
50484;BME280;36409;52.168;20.878;2023-04-24T00:09:40;99631.43;;;9.68;50.79
50484;BME280;36409;52.168;20.878;2023-04-24T00:12:14;99623.70;;;9.65;51.43
50484;BME280;36409;52.168;20.878;2023-04-24T00:14:50;99626.41;;;9.61;51.44
50484;BME280;36409;52.168;20.878;2023-04-24T00:17:22;99613.49;;;9.56;51.43
50484;BME280;36409;52.168;20.878;2023-04-24T00:19:56;99615.27;;;9.54;51.65
50484;BME280;36409;52.168;20.878;2023-04-24T00:22:30;99616.20;;;9.51;51.80
50484;BME280;36409;52.168;20.878;2023-04-24T00:25:05;99617.93;;;9.51;51.97
50484;BME280;36409;52.168;20.878;2023-04-24T00:27:38;99624.03;;;9.50;52.15
50484;BME280;36409;52.168;20.878;2023-04-24T00:30:13;99629.30;;;9.47;52.10
50484;BME280;36409;52.168;20.878;2023-04-24T00:32:45;99632.05;;;9.40;52.05
50484;BME280;36409;52.168;20.878;2023-04-24T00:35:19;99632.19;;;9.34;52.29
50484;BME280;36409;52.168;20.878;2023-04-24T00:37:52;99623.55;;;9.31;52.41
50484;BME280;36409;52.168;20.878;2023-04-24T00:40:26;99631.41;;;9.29;52.79
50484;BME280;36409;52.168;20.878;2023-04-24T00:42:59;99627.14;;;9.25;52.59
50484;BME280;36409;52.168;20.878;2023-04-24T00:45:31;99622.91;;;9.21;52.71
50484;BME280;36409;52.168;20.878;2023-04-24T00:48:04;99627.33;;;9.16;52.81
50484;BME280;36409;52.168;20.878;2023-04-24T00:50:39;99629.19;;;9.10;52.98
50484;BME280;36409;52.168;20.878;2023-04-24T00:53:16;99629.24;;;9.07;53.22
50484;BME280;36409;52.168;20.878;2023-04-24T00:55:49;99630.13;;;9.06;53.21
50484;BME280;36409;52.168;20.878;2023-04-24T00:58:22;99627.62;;;9.02;53.11
50484;BME280;36409;52.168;20.878;2023-04-24T01:00:55;99627.66;;;9.00;53.38
50484;BME280;36409;52.168;20.878;2023-04-24T01:03:30;99619.02;;;8.98;53.57
50484;BME280;36409;52.168;20.878;2023-04-24T01:06:05;99618.14;;;8.98;53.65
50484;BME280;36409;52.168;20.878;2023-04-24T01:08:40;99617.39;;;8.92;53.70
50484;BME280;36409;52.168;20.878;2023-04-24T01:11:14;99618.28;;;8.90;53.84
50484;BME280;36409;52.168;20.878;2023-04-24T01:13:49;99614.84;;;8.89;53.90
50484;BME280;36409;52.168;20.878;2023-04-24T01:16:22;99613.95;;;8.90;54.07
50484;BME280;36409;52.168;20.878;2023-04-24T01:18:55;99608.70;;;8.93;53.67
50484;BME280;36409;52.168;20.878;2023-04-24T01:21:28;99616.42;;;8.96;54.60
50484;BME280;36409;52.168;20.878;2023-04-24T01:24:04;99614.66;;;8.99;54.36
50484;BME280;36409;52.168;20.878;2023-04-24T01:26:37;99607.72;;;8.99;54.29
50484;BME280;36409;52.168;20.878;2023-04-24T01:29:12;99610.33;;;8.99;54.65
50484;BME280;36409;52.168;20.878;2023-04-24T01:31:48;99610.28;;;9.01;54.46
50484;BME280;36409;52.168;20.878;2023-04-24T01:34:21;99605.03;;;9.02;54.70
50484;BME280;36409;52.168;20.878;2023-04-24T01:36:53;99601.59;;;9.02;54.81
50484;BME280;36409;52.168;20.878;2023-04-24T01:39:27;99597.27;;;9.01;54.80
50484;BME280;36409;52.168;20.878;2023-04-24T01:42:01;99596.44;;;8.99;54.71
50484;BME280;36409;52.168;20.878;2023-04-24T01:44:34;99588.67;;;8.95;54.98
50484;BME280;36409;52.168;20.878;2023-04-24T01:47:07;99591.38;;;8.91;55.04
50484;BME280;36409;52.168;20.878;2023-04-24T01:49:40;99587.09;;;8.88;54.84
50484;BME280;36409;52.168;20.878;2023-04-24T01:52:16;99587.15;;;8.85;54.89
50484;BME280;36409;52.168;20.878;2023-04-24T01:54:53;99575.06;;;8.83;55.22
50484;BME280;36409;52.168;20.878;2023-04-24T01:57:28;99577.70;;;8.81;55.25
50484;BME280;36409;52.168;20.878;2023-04-24T02:00:02;99577.70;;;8.81;55.43
50484;BME280;36409;52.168;20.878;2023-04-24T02:02:44;99576.00;;;8.78;55.90
50484;BME280;36409;52.168;20.878;2023-04-24T02:05:20;99580.40;;;8.76;55.47
50484;BME280;36409;52.168;20.878;2023-04-24T02:07:53;99576.08;;;8.75;55.61
50484;BME280;36409;52.168;20.878;2023-04-24T02:10:27;99581.30;;;8.74;55.53
50484;BME280;36409;52.168;20.878;2023-04-24T02:13:02;99573.57;;;8.71;55.93
50484;BME280;36409;52.168;20.878;2023-04-24T02:15:36;99582.34;;;8.65;55.71
50484;BME280;36409;52.168;20.878;2023-04-24T02:18:08;99581.65;;;8.55;55.46
50484;BME280;36409;52.168;20.878;2023-04-24T02:20:41;99576.58;;;8.47;55.82
50484;BME280;36409;52.168;20.878;2023-04-24T02:23:16;99574.08;;;8.40;55.77
50484;BME280;36409;52.168;20.878;2023-04-24T02:25:49;99568.08;;;8.36;55.79
50484;BME280;36409;52.168;20.878;2023-04-24T02:28:24;99571.60;;;8.33;56.20
50484;BME280;36409;52.168;20.878;2023-04-24T02:30:59;99566.45;;;8.30;56.26
50484;BME280;36409;52.168;20.878;2023-04-24T02:33:31;99562.20;;;8.26;56.16
50484;BME280;36409;52.168;20.878;2023-04-24T02:36:06;99558.85;;;8.19;56.08
50484;BME280;36409;52.168;20.878;2023-04-24T02:38:39;99559.78;;;8.15;56.49
50484;BME280;36409;52.168;20.878;2023-04-24T02:41:11;99561.58;;;8.12;56.35
50484;BME280;36409;52.168;20.878;2023-04-24T02:43:47;99560.73;;;8.10;56.20
50484;BME280;36409;52.168;20.878;2023-04-24T02:46:19;99558.14;;;8.10;56.88
50484;BME280;36409;52.168;20.878;2023-04-24T02:48:54;99556.38;;;8.12;56.43
50484;BME280;36409;52.168;20.878;2023-04-24T02:51:27;99557.22;;;8.12;56.92
50484;BME280;36409;52.168;20.878;2023-04-24T02:54:00;99558.09;;;8.13;56.37
50484;BME280;36409;52.168;20.878;2023-04-24T02:56:33;99552.91;;;8.11;56.88
50484;BME280;36409;52.168;20.878;2023-04-24T02:59:08;99555.62;;;8.05;57.04
50484;BME280;36409;52.168;20.878;2023-04-24T03:01:41;99545.27;;;8.02;57.17
50484;BME280;36409;52.168;20.878;2023-04-24T03:04:16;99547.91;;;8.00;56.86
50484;BME280;36409;52.168;20.878;2023-04-24T03:06:52;99546.22;;;7.98;57.09
50484;BME280;36409;52.168;20.878;2023-04-24T03:09:25;99549.70;;;7.97;57.14
50484;BME280;36409;52.168;20.878;2023-04-24T03:11:59;99546.23;;;7.96;57.14
50484;BME280;36409;52.168;20.878;2023-04-24T03:14:34;99546.23;;;7.96;57.34
50484;BME280;36409;52.168;20.878;2023-04-24T03:17:07;99547.95;;;7.97;57.54
50484;BME280;36409;52.168;20.878;2023-04-24T03:19:40;99548.82;;;7.98;57.60
50484;BME280;36409;52.168;20.878;2023-04-24T03:22:14;99549.63;;;8.00;57.59
50484;BME280;36409;52.168;20.878;2023-04-24T03:24:47;99553.94;;;8.02;57.54
50484;BME280;36409;52.168;20.878;2023-04-24T03:27:21;99553.02;;;8.05;57.83
50484;BME280;36409;52.168;20.878;2023-04-24T03:30:00;99555.54;;;8.10;58.09
50484;BME280;36409;52.168;20.878;2023-04-24T03:32:44;99560.66;;;8.16;57.92
50484;BME280;36409;52.168;20.878;2023-04-24T03:35:19;99563.09;;;8.25;58.28
50484;BME280;36409;52.168;20.878;2023-04-24T03:37:53;99558.56;;;8.35;58.27
50484;BME280;36409;52.168;20.878;2023-04-24T03:40:44;99556.71;;;8.42;58.14
50484;BME280;36409;52.168;20.878;2023-04-24T03:43:43;99562.66;;;8.50;58.00
50484;BME280;36409;52.168;20.878;2023-04-24T03:46:22;99554.72;;;8.58;58.32
50484;BME280;36409;52.168;20.878;2023-04-24T03:49:06;99556.33;;;8.65;58.07
50484;BME280;36409;52.168;20.878;2023-04-24T03:51:45;99554.39;;;8.75;58.29
50484;BME280;36409;52.168;20.878;2023-04-24T03:54:21;99553.31;;;8.85;58.12
50484;BME280;36409;52.168;20.878;2023-04-24T03:56:54;99552.28;;;8.94;58.09
50484;BME280;36409;52.168;20.878;2023-04-24T03:59:30;99554.69;;;9.03;58.10
50484;BME280;36409;52.168;20.878;2023-04-24T04:02:24;99562.25;;;9.16;58.11
50484;BME280;36409;52.168;20.878;2023-04-24T04:04:58;99558.55;;;9.26;58.05
50484;BME280;36409;52.168;20.878;2023-04-24T04:07:34;99561.78;;;9.37;57.65
50484;BME280;36409;52.168;20.878;2023-04-24T04:10:08;99556.36;;;9.47;58.34
50484;BME280;36409;52.168;20.878;2023-04-24T04:12:41;99561.34;;;9.57;57.81
50484;BME280;36409;52.168;20.878;2023-04-24T04:15:16;99560.19;;;9.69;57.76
50484;BME280;36409;52.168;20.878;2023-04-24T04:17:48;99556.45;;;9.81;57.62
50484;BME280;36409;52.168;20.878;2023-04-24T04:20:22;99553.39;;;10.34;58.23
50484;BME280;36409;52.168;20.878;2023-04-24T04:22:55;99561.63;;;11.15;58.25
50484;BME280;36409;52.168;20.878;2023-04-24T04:25:38;99557.44;;;11.95;57.33
50484;BME280;36409;52.168;20.878;2023-04-24T04:28:19;99560.55;;;13.07;56.71
50484;BME280;36409;52.168;20.878;2023-04-24T04:30:54;99556.55;;;14.32;55.71
50484;BME280;36409;52.168;20.878;2023-04-24T04:33:27;99538.63;;;15.02;55.34
50484;BME280;36409;52.168;20.878;2023-04-24T04:36:00;99545.66;;;15.77;55.10
50484;BME280;36409;52.168;20.878;2023-04-24T04:38:39;99535.28;;;16.61;54.04
50484;BME280;36409;52.168;20.878;2023-04-24T04:41:24;99534.15;;;17.33;52.95
50484;BME280;36409;52.168;20.878;2023-04-24T04:43:57;99536.60;;;18.14;52.29
50484;BME280;36409;52.168;20.878;2023-04-24T04:46:31;99534.70;;;19.05;51.74
50484;BME280;36409;52.168;20.878;2023-04-24T04:49:13;99529.23;;;19.77;50.71
50484;BME280;36409;52.168;20.878;2023-04-24T04:51:50;99526.09;;;20.51;49.37
50484;BME280;36409;52.168;20.878;2023-04-24T04:54:24;99528.08;;;20.73;49.01
50484;BME280;36409;52.168;20.878;2023-04-24T04:56:57;99521.83;;;21.00;48.01
50484;BME280;36409;52.168;20.878;2023-04-24T04:59:29;99517.08;;;21.67;47.04
50484;BME280;36409;52.168;20.878;2023-04-24T05:02:11;99527.94;;;22.46;47.26
50484;BME280;36409;52.168;20.878;2023-04-24T05:04:44;99517.91;;;23.41;45.95
50484;BME280;36409;52.168;20.878;2023-04-24T05:07:18;99527.39;;;24.20;45.18
50484;BME280;36409;52.168;20.878;2023-04-24T05:09:55;99522.33;;;25.00;44.12
50484;BME280;36409;52.168;20.878;2023-04-24T05:12:28;99518.77;;;25.21;42.83
50484;BME280;36409;52.168;20.878;2023-04-24T05:15:01;99518.05;;;24.57;42.96
50484;BME280;36409;52.168;20.878;2023-04-24T05:17:34;99517.80;;;24.60;42.65
50484;BME280;36409;52.168;20.878;2023-04-24T05:20:08;99513.48;;;25.40;41.18
50484;BME280;36409;52.168;20.878;2023-04-24T05:22:43;99518.72;;;26.11;40.44
50484;BME280;36409;52.168;20.878;2023-04-24T05:25:17;99518.78;;;26.48;39.62
50484;BME280;36409;52.168;20.878;2023-04-24T05:27:56;99524.12;;;26.96;39.13
50484;BME280;36409;52.168;20.878;2023-04-24T05:30:28;99516.27;;;27.12;38.28
50484;BME280;36409;52.168;20.878;2023-04-24T05:33:02;99512.20;;;26.80;38.19
50484;BME280;36409;52.168;20.878;2023-04-24T05:35:36;99510.66;;;27.06;37.50
50484;BME280;36409;52.168;20.878;2023-04-24T05:38:17;99508.85;;;26.21;37.78
50484;BME280;36409;52.168;20.878;2023-04-24T05:40:50;99501.88;;;24.70;38.38
50484;BME280;36409;52.168;20.878;2023-04-24T05:43:24;99509.86;;;23.85;38.74
50484;BME280;36409;52.168;20.878;2023-04-24T05:45:58;99511.66;;;23.19;38.41
50484;BME280;36409;52.168;20.878;2023-04-24T05:48:31;99510.80;;;22.96;38.45
50484;BME280;36409;52.168;20.878;2023-04-24T05:51:05;99508.73;;;22.54;38.47
50484;BME280;36409;52.168;20.878;2023-04-24T05:53:38;99512.55;;;22.27;38.35
50484;BME280;36409;52.168;20.878;2023-04-24T05:56:12;99512.99;;;21.74;38.29
50484;BME280;36409;52.168;20.878;2023-04-24T05:58:44;99514.57;;;21.15;38.84
50484;BME280;36409;52.168;20.878;2023-04-24T06:01:16;99509.88;;;20.81;39.46
50484;BME280;36409;52.168;20.878;2023-04-24T06:03:55;99514.23;;;20.82;39.26
50484;BME280;36409;52.168;20.878;2023-04-24T06:06:31;99506.19;;;21.21;39.08
50484;BME280;36409;52.168;20.878;2023-04-24T06:09:07;99503.55;;;21.08;39.54
50484;BME280;36409;52.168;20.878;2023-04-24T06:11:39;99503.09;;;20.64;39.03
50484;BME280;36409;52.168;20.878;2023-04-24T06:14:13;99507.29;;;20.15;39.77
50484;BME280;36409;52.168;20.878;2023-04-24T06:17:08;99504.34;;;19.80;40.06
50484;BME280;36409;52.168;20.878;2023-04-24T06:19:45;99508.30;;;19.59;40.41
50484;BME280;36409;52.168;20.878;2023-04-24T06:22:22;99510.06;;;19.46;40.64
50484;BME280;36409;52.168;20.878;2023-04-24T06:24:56;99505.45;;;19.35;41.15
50484;BME280;36409;52.168;20.878;2023-04-24T06:27:29;99500.12;;;19.22;40.99
50484;BME280;36409;52.168;20.878;2023-04-24T06:30:06;99496.72;;;19.20;41.27
50484;BME280;36409;52.168;20.878;2023-04-24T06:32:39;99491.77;;;19.28;41.29
50484;BME280;36409;52.168;20.878;2023-04-24T06:35:12;99489.43;;;19.51;40.94
50484;BME280;36409;52.168;20.878;2023-04-24T06:37:46;99484.75;;;19.82;41.07
50484;BME280;36409;52.168;20.878;2023-04-24T06:40:19;99477.70;;;20.73;40.31
50484;BME280;36409;52.168;20.878;2023-04-24T06:42:51;99481.83;;;21.65;40.44
50484;BME280;36409;52.168;20.878;2023-04-24T06:45:23;99474.89;;;22.90;39.64
50484;BME280;36409;52.168;20.878;2023-04-24T06:47:56;99469.65;;;24.30;38.47
50484;BME280;36409;52.168;20.878;2023-04-24T06:50:29;99473.52;;;25.29;37.31
50484;BME280;36409;52.168;20.878;2023-04-24T06:53:01;99471.72;;;25.88;36.51
50484;BME280;36409;52.168;20.878;2023-04-24T06:55:34;99473.55;;;26.17;36.33
50484;BME280;36409;52.168;20.878;2023-04-24T06:58:05;99476.08;;;25.99;36.23
50484;BME280;36409;52.168;20.878;2023-04-24T07:00:39;99468.36;;;25.67;36.56
50484;BME280;36409;52.168;20.878;2023-04-24T07:03:14;99476.43;;;25.06;36.83
50484;BME280;36409;52.168;20.878;2023-04-24T07:05:47;99481.32;;;24.08;37.09
50484;BME280;36409;52.168;20.878;2023-04-24T07:08:24;99487.70;;;23.19;37.37
50484;BME280;36409;52.168;20.878;2023-04-24T07:10:57;99484.52;;;22.23;38.11
50484;BME280;36409;52.168;20.878;2023-04-24T07:13:29;99479.31;;;21.50;38.47
50484;BME280;36409;52.168;20.878;2023-04-24T07:16:02;99486.62;;;21.22;38.69
50484;BME280;36409;52.168;20.878;2023-04-24T07:18:35;99482.04;;;21.00;39.14
50484;BME280;36409;52.168;20.878;2023-04-24T07:21:09;99478.69;;;20.85;39.18
50484;BME280;36409;52.168;20.878;2023-04-24T07:23:42;99480.59;;;20.83;39.26
50484;BME280;36409;52.168;20.878;2023-04-24T07:26:15;99485.98;;;20.94;39.49
50484;BME280;36409;52.168;20.878;2023-04-24T07:28:48;99481.75;;;20.92;39.65
50484;BME280;36409;52.168;20.878;2023-04-24T07:31:20;99481.96;;;21.50;39.32
50484;BME280;36409;52.168;20.878;2023-04-24T07:33:53;99477.52;;;23.13;37.96
50484;BME280;36409;52.168;20.878;2023-04-24T07:36:31;99483.16;;;23.42;38.31
50484;BME280;36409;52.168;20.878;2023-04-24T07:39:05;99486.04;;;22.73;38.04
50484;BME280;36409;52.168;20.878;2023-04-24T07:41:40;99479.22;;;22.34;39.13
50484;BME280;36409;52.168;20.878;2023-04-24T07:44:13;99482.46;;;22.27;39.02
50484;BME280;36409;52.168;20.878;2023-04-24T07:46:50;99488.93;;;22.81;38.84
50484;BME280;36409;52.168;20.878;2023-04-24T07:49:23;99479.10;;;23.59;37.94
50484;BME280;36409;52.168;20.878;2023-04-24T07:51:56;99465.92;;;24.43;37.25
50484;BME280;36409;52.168;20.878;2023-04-24T07:54:28;99474.34;;;24.69;36.91
50484;BME280;36409;52.168;20.878;2023-04-24T07:57:01;99466.80;;;24.74;37.39
50484;BME280;36409;52.168;20.878;2023-04-24T07:59:33;99470.05;;;24.57;37.38
50484;BME280;36409;52.168;20.878;2023-04-24T08:02:06;99472.44;;;24.81;37.53
50484;BME280;36409;52.168;20.878;2023-04-24T08:04:38;99471.83;;;25.28;37.11
50484;BME280;36409;52.168;20.878;2023-04-24T08:07:14;99462.25;;;25.16;37.27
50484;BME280;36409;52.168;20.878;2023-04-24T08:09:46;99464.33;;;24.92;36.67
50484;BME280;36409;52.168;20.878;2023-04-24T08:12:22;99468.99;;;24.38;36.97
50484;BME280;36409;52.168;20.878;2023-04-24T08:14:55;99469.03;;;23.96;37.48
50484;BME280;36409;52.168;20.878;2023-04-24T08:17:28;99468.63;;;23.47;37.28
50484;BME280;36409;52.168;20.878;2023-04-24T08:20:01;99467.59;;;23.26;37.59
50484;BME280;36409;52.168;20.878;2023-04-24T08:22:36;99472.05;;;23.14;37.85
50484;BME280;36409;52.168;20.878;2023-04-24T08:25:10;99473.05;;;23.13;38.22
50484;BME280;36409;52.168;20.878;2023-04-24T08:27:43;99473.33;;;22.88;38.73
50484;BME280;36409;52.168;20.878;2023-04-24T08:30:16;99474.55;;;22.61;38.37
50484;BME280;36409;52.168;20.878;2023-04-24T08:32:50;99471.23;;;22.23;38.70
50484;BME280;36409;52.168;20.878;2023-04-24T08:35:23;99473.10;;;21.98;38.91
50484;BME280;36409;52.168;20.878;2023-04-24T08:37:55;99475.59;;;21.77;38.78
50484;BME280;36409;52.168;20.878;2023-04-24T08:40:30;99477.56;;;21.62;38.78
50484;BME280;36409;52.168;20.878;2023-04-24T08:43:06;99473.34;;;21.59;38.71
50484;BME280;36409;52.168;20.878;2023-04-24T08:45:39;99478.74;;;21.58;39.36
50484;BME280;36409;52.168;20.878;2023-04-24T08:48:14;99473.44;;;21.58;39.11
50484;BME280;36409;52.168;20.878;2023-04-24T08:51:00;99475.20;;;21.70;39.62
50484;BME280;36409;52.168;20.878;2023-04-24T08:53:35;99472.47;;;21.83;39.64
50484;BME280;36409;52.168;20.878;2023-04-24T08:56:08;99477.20;;;21.91;39.47
50484;BME280;36409;52.168;20.878;2023-04-24T08:58:42;99468.27;;;21.92;39.77
50484;BME280;36409;52.168;20.878;2023-04-24T09:01:17;99467.89;;;22.44;39.35
50484;BME280;36409;52.168;20.878;2023-04-24T09:03:54;99458.30;;;23.09;39.54
50484;BME280;36409;52.168;20.878;2023-04-24T09:06:30;99466.70;;;23.37;39.88
50484;BME280;36409;52.168;20.878;2023-04-24T09:09:05;99469.42;;;23.58;39.05
50484;BME280;36409;52.168;20.878;2023-04-24T09:11:38;99459.69;;;23.69;39.25
50484;BME280;36409;52.168;20.878;2023-04-24T09:14:14;99463.02;;;23.82;38.96
50484;BME280;36409;52.168;20.878;2023-04-24T09:16:47;99459.19;;;23.75;38.24
50484;BME280;36409;52.168;20.878;2023-04-24T09:19:19;99453.86;;;23.75;38.29
50484;BME280;36409;52.168;20.878;2023-04-24T09:21:54;99457.41;;;23.97;38.26
50484;BME280;36409;52.168;20.878;2023-04-24T09:24:25;99451.28;;;24.68;38.49
50484;BME280;36409;52.168;20.878;2023-04-24T09:26:59;99442.86;;;25.13;38.23
50484;BME280;36409;52.168;20.878;2023-04-24T09:29:33;99446.38;;;25.24;37.63
50484;BME280;36409;52.168;20.878;2023-04-24T09:32:21;99444.76;;;25.42;37.68
50484;BME280;36409;52.168;20.878;2023-04-24T09:35:10;99438.27;;;25.65;37.07
50484;BME280;36409;52.168;20.878;2023-04-24T09:37:45;99433.91;;;25.83;37.24
50484;BME280;36409;52.168;20.878;2023-04-24T09:40:19;99433.39;;;26.27;36.91
50484;BME280;36409;52.168;20.878;2023-04-24T09:42:55;99430.34;;;26.50;36.94
50484;BME280;36409;52.168;20.878;2023-04-24T09:45:36;99427.03;;;26.38;36.04
50484;BME280;36409;52.168;20.878;2023-04-24T09:48:11;99424.41;;;26.18;36.14
50484;BME280;36409;52.168;20.878;2023-04-24T09:50:47;99421.63;;;26.10;36.30
50484;BME280;36409;52.168;20.878;2023-04-24T09:53:25;99428.74;;;26.29;35.96
50484;BME280;36409;52.168;20.878;2023-04-24T09:56:06;99425.50;;;26.63;36.36
50484;BME280;36409;52.168;20.878;2023-04-24T09:58:40;99424.43;;;26.84;35.53
50484;BME280;36409;52.168;20.878;2023-04-24T10:01:15;99415.17;;;26.68;35.50
50484;BME280;36409;52.168;20.878;2023-04-24T10:03:49;99417.89;;;26.31;35.44
50484;BME280;36409;52.168;20.878;2023-04-24T10:06:23;99412.28;;;26.24;34.94
50484;BME280;36409;52.168;20.878;2023-04-24T10:09:03;99409.73;;;26.32;34.88
50484;BME280;36409;52.168;20.878;2023-04-24T10:11:38;99407.00;;;26.42;34.73
50484;BME280;36409;52.168;20.878;2023-04-24T10:14:16;99400.23;;;26.76;34.98
50484;BME280;36409;52.168;20.878;2023-04-24T10:16:51;99406.87;;;27.00;34.43
50484;BME280;36409;52.168;20.878;2023-04-24T10:19:26;99402.05;;;27.03;34.29
50484;BME280;36409;52.168;20.878;2023-04-24T10:21:59;99396.94;;;27.10;34.09
50484;BME280;36409;52.168;20.878;2023-04-24T10:24:33;99397.53;;;27.22;33.88
50484;BME280;36409;52.168;20.878;2023-04-24T10:27:07;99386.92;;;27.30;33.71
50484;BME280;36409;52.168;20.878;2023-04-24T10:29:38;99384.31;;;27.56;33.44
50484;BME280;36409;52.168;20.878;2023-04-24T10:32:11;99382.84;;;27.62;33.22
50484;BME280;36409;52.168;20.878;2023-04-24T10:34:44;99376.07;;;27.76;33.20
50484;BME280;36409;52.168;20.878;2023-04-24T10:37:16;99373.34;;;27.94;33.24
50484;BME280;36409;52.168;20.878;2023-04-24T10:39:50;99369.77;;;28.12;33.21
50484;BME280;36409;52.168;20.878;2023-04-24T10:42:28;99365.12;;;28.22;33.24
50484;BME280;36409;52.168;20.878;2023-04-24T10:45:06;99365.12;;;27.96;32.50
50484;BME280;36409;52.168;20.878;2023-04-24T10:47:58;99368.03;;;27.76;31.95
50484;BME280;36409;52.168;20.878;2023-04-24T10:50:46;99361.66;;;28.03;32.67
50484;BME280;36409;52.168;20.878;2023-04-24T10:53:22;99355.98;;;28.41;32.51
50484;BME280;36409;52.168;20.878;2023-04-24T10:56:00;99360.11;;;28.70;32.04
50484;BME280;36409;52.168;20.878;2023-04-24T10:58:42;99357.43;;;28.70;31.93
50484;BME280;36409;52.168;20.878;2023-04-24T11:01:27;99357.75;;;28.67;31.90
50484;BME280;36409;52.168;20.878;2023-04-24T11:04:02;99349.09;;;28.90;31.68
50484;BME280;36409;52.168;20.878;2023-04-24T11:06:36;99355.00;;;29.10;31.57
50484;BME280;36409;52.168;20.878;2023-04-24T11:09:10;99357.66;;;28.93;31.13
50484;BME280;36409;52.168;20.878;2023-04-24T11:11:48;99348.73;;;28.76;30.60
50484;BME280;36409;52.168;20.878;2023-04-24T11:14:20;99349.78;;;28.92;30.96
50484;BME280;36409;52.168;20.878;2023-04-24T11:16:54;99344.05;;;28.95;30.47
50484;BME280;36409;52.168;20.878;2023-04-24T11:19:29;99354.33;;;29.08;30.22
50484;BME280;36409;52.168;20.878;2023-04-24T11:22:03;99345.59;;;29.06;30.40
50484;BME280;36409;52.168;20.878;2023-04-24T11:24:48;99342.63;;;28.58;30.24
50484;BME280;36409;52.168;20.878;2023-04-24T11:27:25;99353.36;;;28.58;30.15
50484;BME280;36409;52.168;20.878;2023-04-24T11:30:02;99340.59;;;28.60;30.33
50484;BME280;36409;52.168;20.878;2023-04-24T11:32:38;99339.91;;;28.49;30.15
50484;BME280;36409;52.168;20.878;2023-04-24T11:35:15;99335.56;;;28.48;30.12
50484;BME280;36409;52.168;20.878;2023-04-24T11:37:50;99338.03;;;28.07;30.33
50484;BME280;36409;52.168;20.878;2023-04-24T11:40:43;99345.28;;;27.80;30.57
50484;BME280;36409;52.168;20.878;2023-04-24T11:43:17;99329.26;;;27.62;30.28
50484;BME280;36409;52.168;20.878;2023-04-24T11:45:52;99340.25;;;27.15;30.41
50484;BME280;36409;52.168;20.878;2023-04-24T11:48:25;99334.44;;;27.01;30.29
50484;BME280;36409;52.168;20.878;2023-04-24T11:50:58;99341.23;;;27.13;30.36
50484;BME280;36409;52.168;20.878;2023-04-24T11:53:34;99338.63;;;27.22;30.59
50484;BME280;36409;52.168;20.878;2023-04-24T11:56:10;99341.23;;;26.95;30.13
50484;BME280;36409;52.168;20.878;2023-04-24T11:58:42;99326.52;;;26.63;30.38
50484;BME280;36409;52.168;20.878;2023-04-24T12:01:15;99328.53;;;26.33;30.44
50484;BME280;36409;52.168;20.878;2023-04-24T12:03:51;99317.23;;;26.12;30.67
50484;BME280;36409;52.168;20.878;2023-04-24T12:06:32;99316.44;;;25.92;30.93
50484;BME280;36409;52.168;20.878;2023-04-24T12:09:05;99314.49;;;25.84;30.89
50484;BME280;36409;52.168;20.878;2023-04-24T12:11:55;99307.58;;;25.43;31.05
50484;BME280;36409;52.168;20.878;2023-04-24T12:14:29;99307.58;;;25.04;30.90
50484;BME280;36409;52.168;20.878;2023-04-24T12:17:04;99307.72;;;24.73;30.78
50484;BME280;36409;52.168;20.878;2023-04-24T12:19:44;99315.63;;;24.44;31.60
50484;BME280;36409;52.168;20.878;2023-04-24T12:22:18;99306.87;;;24.22;31.19
50484;BME280;36409;52.168;20.878;2023-04-24T12:25:01;99305.13;;;24.01;31.71
50484;BME280;36409;52.168;20.878;2023-04-24T12:27:34;99314.24;;;23.78;32.03
50484;BME280;36409;52.168;20.878;2023-04-24T12:30:12;99308.13;;;23.66;32.23
50484;BME280;36409;52.168;20.878;2023-04-24T12:32:48;99310.30;;;23.51;32.15
50484;BME280;36409;52.168;20.878;2023-04-24T12:35:25;99331.86;;;23.26;32.04
50484;BME280;36409;52.168;20.878;2023-04-24T12:38:07;99328.14;;;22.85;32.39
50484;BME280;36409;52.168;20.878;2023-04-24T12:40:40;99344.78;;;22.43;32.38
50484;BME280;36409;52.168;20.878;2023-04-24T12:43:17;99356.59;;;21.94;32.96
50484;BME280;36409;52.168;20.878;2023-04-24T12:45:50;99375.28;;;21.45;33.03
50484;BME280;36409;52.168;20.878;2023-04-24T12:48:23;99358.95;;;21.03;33.37
50484;BME280;36409;52.168;20.878;2023-04-24T12:50:58;99374.13;;;20.76;33.69
50484;BME280;36409;52.168;20.878;2023-04-24T12:53:32;99357.31;;;20.51;33.89
50484;BME280;36409;52.168;20.878;2023-04-24T12:56:07;99354.29;;;20.32;34.48
50484;BME280;36409;52.168;20.878;2023-04-24T12:58:41;99355.57;;;20.26;34.35
50484;BME280;36409;52.168;20.878;2023-04-24T13:01:14;99349.61;;;20.35;34.67
50484;BME280;36409;52.168;20.878;2023-04-24T13:03:47;99354.70;;;20.39;34.55
50484;BME280;36409;52.168;20.878;2023-04-24T13:06:23;99368.77;;;20.52;34.96
50484;BME280;36409;52.168;20.878;2023-04-24T13:08:57;99353.28;;;20.59;35.29
50484;BME280;36409;52.168;20.878;2023-04-24T13:11:30;99353.16;;;20.60;35.11
50484;BME280;36409;52.168;20.878;2023-04-24T13:14:02;99347.30;;;20.68;35.10
50484;BME280;36409;52.168;20.878;2023-04-24T13:16:42;99342.84;;;20.81;35.18
50484;BME280;36409;52.168;20.878;2023-04-24T13:19:17;99327.64;;;20.83;35.12
50484;BME280;36409;52.168;20.878;2023-04-24T13:21:50;99335.28;;;20.88;35.39
50484;BME280;36409;52.168;20.878;2023-04-24T13:24:23;99327.94;;;20.92;35.41
50484;BME280;36409;52.168;20.878;2023-04-24T13:26:57;99320.26;;;21.00;34.87
50484;BME280;36409;52.168;20.878;2023-04-24T13:29:31;99327.30;;;21.12;34.96
50484;BME280;36409;52.168;20.878;2023-04-24T13:32:03;99317.47;;;21.26;35.27
50484;BME280;36409;52.168;20.878;2023-04-24T13:34:37;99305.03;;;21.26;35.11